sensor_id;sensor_type;location;lat;lon;timestamp;P1;P2;P0
44871;PMS7003;30602;51.060;17.226;2023-06-14T00:01:09;17;16;13
44871;PMS7003;30602;51.060;17.226;2023-06-14T00:04:38;17;14;12
44871;PMS7003;30602;51.060;17.226;2023-06-14T00:08:27;19;15;12
44871;PMS7003;30602;51.060;17.226;2023-06-14T00:11:47;16;15;11
44871;PMS7003;30602;51.060;17.226;2023-06-14T00:15:18;16;16;13
44871;PMS7003;30602;51.060;17.226;2023-06-14T00:19:11;16;14;11
44871;PMS7003;30602;51.060;17.226;2023-06-14T00:22:53;19;14;13
44871;PMS7003;30602;51.060;17.226;2023-06-14T00:26:51;18;17;13
44871;PMS7003;30602;51.060;17.226;2023-06-14T00:31:07;18;16;12
44871;PMS7003;30602;51.060;17.226;2023-06-14T00:34:51;16;16;13
44871;PMS7003;30602;51.060;17.226;2023-06-14T00:38:45;18;14;12
44871;PMS7003;30602;51.060;17.226;2023-06-14T00:42:11;17;14;12
44871;PMS7003;30602;51.060;17.226;2023-06-14T00:46:22;16;16;12
44871;PMS7003;30602;51.060;17.226;2023-06-14T00:49:41;18;16;13
44871;PMS7003;30602;51.060;17.226;2023-06-14T00:57:00;19;16;13
44871;PMS7003;30602;51.060;17.226;2023-06-14T01:00:58;18;17;13
44871;PMS7003;30602;51.060;17.226;2023-06-14T01:04:52;15;14;11
44871;PMS7003;30602;51.060;17.226;2023-06-14T01:08:50;19;17;14
44871;PMS7003;30602;51.060;17.226;2023-06-14T01:16:56;19;18;14
44871;PMS7003;30602;51.060;17.226;2023-06-14T01:20:54;18;18;13
44871;PMS7003;30602;51.060;17.226;2023-06-14T01:24:47;17;15;11
44871;PMS7003;30602;51.060;17.226;2023-06-14T01:28:23;17;17;14
44871;PMS7003;30602;51.060;17.226;2023-06-14T01:32:48;17;15;12
44871;PMS7003;30602;51.060;17.226;2023-06-14T01:36:12;15;15;11
44871;PMS7003;30602;51.060;17.226;2023-06-14T01:39:59;17;16;13
44871;PMS7003;30602;51.060;17.226;2023-06-14T01:43:46;20;16;11
44871;PMS7003;30602;51.060;17.226;2023-06-14T01:47:31;15;15;12
44871;PMS7003;30602;51.060;17.226;2023-06-14T01:50:52;17;16;12
44871;PMS7003;30602;51.060;17.226;2023-06-14T01:54:22;17;17;12
44871;PMS7003;30602;51.060;17.226;2023-06-14T01:57:50;19;18;13
44871;PMS7003;30602;51.060;17.226;2023-06-14T02:01:33;17;16;12
44871;PMS7003;30602;51.060;17.226;2023-06-14T02:05:07;16;16;13
44871;PMS7003;30602;51.060;17.226;2023-06-14T02:08:33;16;14;12
44871;PMS7003;30602;51.060;17.226;2023-06-14T02:12:41;19;17;13
44871;PMS7003;30602;51.060;17.226;2023-06-14T02:16:22;16;16;12
44871;PMS7003;30602;51.060;17.226;2023-06-14T02:20:07;15;15;12
44871;PMS7003;30602;51.060;17.226;2023-06-14T02:23:42;16;16;12
44871;PMS7003;30602;51.060;17.226;2023-06-14T02:27:50;18;17;13
44871;PMS7003;30602;51.060;17.226;2023-06-14T02:31:12;16;16;13
44871;PMS7003;30602;51.060;17.226;2023-06-14T02:34:45;19;14;11
44871;PMS7003;30602;51.060;17.226;2023-06-14T02:38:41;18;15;12
44871;PMS7003;30602;51.060;17.226;2023-06-14T02:42:23;14;14;11
44871;PMS7003;30602;51.060;17.226;2023-06-14T02:46:26;17;14;12
44871;PMS7003;30602;51.060;17.226;2023-06-14T02:50:21;18;16;13
44871;PMS7003;30602;51.060;17.226;2023-06-14T02:53:43;18;15;13
44871;PMS7003;30602;51.060;17.226;2023-06-14T02:57:07;17;15;12
44871;PMS7003;30602;51.060;17.226;2023-06-14T03:00:51;16;15;11
44871;PMS7003;30602;51.060;17.226;2023-06-14T03:08:27;18;17;12
44871;PMS7003;30602;51.060;17.226;2023-06-14T03:11:53;17;17;13
44871;PMS7003;30602;51.060;17.226;2023-06-14T03:15:35;19;17;12
44871;PMS7003;30602;51.060;17.226;2023-06-14T03:19:24;20;17;13
44871;PMS7003;30602;51.060;17.226;2023-06-14T03:23:42;15;14;12
44871;PMS7003;30602;51.060;17.226;2023-06-14T03:27:35;18;18;14
44871;PMS7003;30602;51.060;17.226;2023-06-14T03:31:29;17;15;11
44871;PMS7003;30602;51.060;17.226;2023-06-14T03:35:25;16;16;12
44871;PMS7003;30602;51.060;17.226;2023-06-14T03:39:13;21;19;12
44871;PMS7003;30602;51.060;17.226;2023-06-14T03:42:54;17;17;13
44871;PMS7003;30602;51.060;17.226;2023-06-14T03:46:39;20;19;14
44871;PMS7003;30602;51.060;17.226;2023-06-14T03:50:02;19;17;13
44871;PMS7003;30602;51.060;17.226;2023-06-14T03:54:31;19;17;13
44871;PMS7003;30602;51.060;17.226;2023-06-14T03:58:13;18;17;12
44871;PMS7003;30602;51.060;17.226;2023-06-14T04:01:56;23;20;13
44871;PMS7003;30602;51.060;17.226;2023-06-14T04:06:08;20;20;15
44871;PMS7003;30602;51.060;17.226;2023-06-14T04:10:25;18;17;14
44871;PMS7003;30602;51.060;17.226;2023-06-14T04:14:21;20;16;13
44871;PMS7003;30602;51.060;17.226;2023-06-14T04:18:16;19;17;13
44871;PMS7003;30602;51.060;17.226;2023-06-14T04:21:55;18;17;14
44871;PMS7003;30602;51.060;17.226;2023-06-14T04:25:48;22;20;15
44871;PMS7003;30602;51.060;17.226;2023-06-14T04:29:31;18;17;13
44871;PMS7003;30602;51.060;17.226;2023-06-14T04:33:13;21;18;14
44871;PMS7003;30602;51.060;17.226;2023-06-14T04:36:57;18;18;13
44871;PMS7003;30602;51.060;17.226;2023-06-14T04:41:15;19;17;14
44871;PMS7003;30602;51.060;17.226;2023-06-14T04:44:41;20;19;14
44871;PMS7003;30602;51.060;17.226;2023-06-14T04:48:28;18;18;15
44871;PMS7003;30602;51.060;17.226;2023-06-14T04:51:52;18;17;12
44871;PMS7003;30602;51.060;17.226;2023-06-14T04:55:47;22;19;13
44871;PMS7003;30602;51.060;17.226;2023-06-14T04:59:28;25;20;15
44871;PMS7003;30602;51.060;17.226;2023-06-14T05:03:49;20;20;14
44871;PMS7003;30602;51.060;17.226;2023-06-14T05:07:57;22;20;15
44871;PMS7003;30602;51.060;17.226;2023-06-14T05:11:16;20;17;12
44871;PMS7003;30602;51.060;17.226;2023-06-14T05:15:01;24;22;16
44871;PMS7003;30602;51.060;17.226;2023-06-14T05:18:52;25;23;16
44871;PMS7003;30602;51.060;17.226;2023-06-14T05:22:42;30;26;18
44871;PMS7003;30602;51.060;17.226;2023-06-14T05:26:10;27;25;15
44871;PMS7003;30602;51.060;17.226;2023-06-14T05:30:01;23;22;15
44871;PMS7003;30602;51.060;17.226;2023-06-14T05:33:56;27;24;17
44871;PMS7003;30602;51.060;17.226;2023-06-14T05:41:35;30;24;17
44871;PMS7003;30602;51.060;17.226;2023-06-14T05:45:10;28;25;16
44871;PMS7003;30602;51.060;17.226;2023-06-14T05:48:55;27;22;18
44871;PMS7003;30602;51.060;17.226;2023-06-14T05:52:41;29;25;18
44871;PMS7003;30602;51.060;17.226;2023-06-14T05:56:33;26;22;17
44871;PMS7003;30602;51.060;17.226;2023-06-14T06:00:09;28;25;17
44871;PMS7003;30602;51.060;17.226;2023-06-14T06:03:49;31;28;18
44871;PMS7003;30602;51.060;17.226;2023-06-14T06:11:36;34;27;18
44871;PMS7003;30602;51.060;17.226;2023-06-14T06:15:09;25;24;18
44871;PMS7003;30602;51.060;17.226;2023-06-14T06:18:34;31;27;18
44871;PMS7003;30602;51.060;17.226;2023-06-14T06:22:25;34;32;19
44871;PMS7003;30602;51.060;17.226;2023-06-14T06:26:30;29;26;18
44871;PMS7003;30602;51.060;17.226;2023-06-14T06:30:23;31;25;18
44871;PMS7003;30602;51.060;17.226;2023-06-14T06:33:49;32;28;19
44871;PMS7003;30602;51.060;17.226;2023-06-14T06:37:15;27;23;16
44871;PMS7003;30602;51.060;17.226;2023-06-14T06:41:08;29;26;19
44871;PMS7003;30602;51.060;17.226;2023-06-14T06:45:04;27;25;18
44871;PMS7003;30602;51.060;17.226;2023-06-14T06:48:48;32;29;20
44871;PMS7003;30602;51.060;17.226;2023-06-14T06:52:41;25;23;17
44871;PMS7003;30602;51.060;17.226;2023-06-14T06:56:18;26;24;18
44871;PMS7003;30602;51.060;17.226;2023-06-14T06:59:46;30;28;17
44871;PMS7003;30602;51.060;17.226;2023-06-14T07:03:40;24;23;18
44871;PMS7003;30602;51.060;17.226;2023-06-14T07:07:03;31;24;16
44871;PMS7003;30602;51.060;17.226;2023-06-14T07:10:47;26;24;17
44871;PMS7003;30602;51.060;17.226;2023-06-14T07:14:35;29;27;18
44871;PMS7003;30602;51.060;17.226;2023-06-14T07:17:59;20;19;15
44871;PMS7003;30602;51.060;17.226;2023-06-14T07:21:38;28;23;15
44871;PMS7003;30602;51.060;17.226;2023-06-14T07:25:05;31;28;17
44871;PMS7003;30602;51.060;17.226;2023-06-14T07:28:54;27;26;18
44871;PMS7003;30602;51.060;17.226;2023-06-14T07:32:16;23;21;17
44871;PMS7003;30602;51.060;17.226;2023-06-14T07:35:59;25;21;15
44871;PMS7003;30602;51.060;17.226;2023-06-14T07:39:53;28;22;16
44871;PMS7003;30602;51.060;17.226;2023-06-14T07:43:11;23;20;15
44871;PMS7003;30602;51.060;17.226;2023-06-14T07:47:07;23;20;15
44871;PMS7003;30602;51.060;17.226;2023-06-14T07:50:57;25;22;15
44871;PMS7003;30602;51.060;17.226;2023-06-14T07:54:31;25;22;16
44871;PMS7003;30602;51.060;17.226;2023-06-14T07:58:35;24;21;15
44871;PMS7003;30602;51.060;17.226;2023-06-14T08:02:21;21;20;16
44871;PMS7003;30602;51.060;17.226;2023-06-14T08:06:06;21;20;16
44871;PMS7003;30602;51.060;17.226;2023-06-14T08:09:53;24;21;15
44871;PMS7003;30602;51.060;17.226;2023-06-14T08:14:21;23;21;15
44871;PMS7003;30602;51.060;17.226;2023-06-14T08:18:07;24;21;16
44871;PMS7003;30602;51.060;17.226;2023-06-14T08:21:30;24;20;16
44871;PMS7003;30602;51.060;17.226;2023-06-14T08:24:52;19;17;13
44871;PMS7003;30602;51.060;17.226;2023-06-14T08:28:59;23;18;14
44871;PMS7003;30602;51.060;17.226;2023-06-14T08:32:23;20;17;14
44871;PMS7003;30602;51.060;17.226;2023-06-14T08:36:03;19;16;14
44871;PMS7003;30602;51.060;17.226;2023-06-14T08:39:59;16;16;12
44871;PMS7003;30602;51.060;17.226;2023-06-14T08:44:06;14;14;11
44871;PMS7003;30602;51.060;17.226;2023-06-14T08:47:59;16;15;11
44871;PMS7003;30602;51.060;17.226;2023-06-14T08:51:53;15;14;11
44871;PMS7003;30602;51.060;17.226;2023-06-14T08:55:36;14;14;11
44871;PMS7003;30602;51.060;17.226;2023-06-14T08:59:32;15;12;10
44871;PMS7003;30602;51.060;17.226;2023-06-14T09:03:03;13;12;9
44871;PMS7003;30602;51.060;17.226;2023-06-14T09:06:33;14;11;9
44871;PMS7003;30602;51.060;17.226;2023-06-14T09:10:31;13;12;9
44871;PMS7003;30602;51.060;17.226;2023-06-14T09:14:19;12;11;8
44871;PMS7003;30602;51.060;17.226;2023-06-14T09:17:48;9;9;8
44871;PMS7003;30602;51.060;17.226;2023-06-14T09:21:29;9;9;8
44871;PMS7003;30602;51.060;17.226;2023-06-14T09:25:49;10;9;7
44871;PMS7003;30602;51.060;17.226;2023-06-14T09:29:42;9;8;6
44871;PMS7003;30602;51.060;17.226;2023-06-14T09:33:16;14;10;8
44871;PMS7003;30602;51.060;17.226;2023-06-14T09:36:47;9;9;8
44871;PMS7003;30602;51.060;17.226;2023-06-14T09:40:11;9;8;6
44871;PMS7003;30602;51.060;17.226;2023-06-14T09:44:15;9;8;6
44871;PMS7003;30602;51.060;17.226;2023-06-14T09:47:49;10;8;7
44871;PMS7003;30602;51.060;17.226;2023-06-14T09:51:22;10;8;7
44871;PMS7003;30602;51.060;17.226;2023-06-14T09:55:13;10;10;8
44871;PMS7003;30602;51.060;17.226;2023-06-14T09:58:48;9;8;7
44871;PMS7003;30602;51.060;17.226;2023-06-14T10:02:37;8;7;6
44871;PMS7003;30602;51.060;17.226;2023-06-14T10:06:26;7;7;6
44871;PMS7003;30602;51.060;17.226;2023-06-14T10:10:19;10;9;7
44871;PMS7003;30602;51.060;17.226;2023-06-14T10:14:13;7;7;6
44871;PMS7003;30602;51.060;17.226;2023-06-14T10:17:50;10;8;7
44871;PMS7003;30602;51.060;17.226;2023-06-14T10:25:41;8;8;7
44871;PMS7003;30602;51.060;17.226;2023-06-14T10:33:23;11;10;8
44871;PMS7003;30602;51.060;17.226;2023-06-14T10:37:01;9;8;6
44871;PMS7003;30602;51.060;17.226;2023-06-14T10:40:38;8;8;7
44871;PMS7003;30602;51.060;17.226;2023-06-14T10:47:56;10;9;9
44871;PMS7003;30602;51.060;17.226;2023-06-14T10:51:22;10;9;7
44871;PMS7003;30602;51.060;17.226;2023-06-14T10:55:09;11;10;8
44871;PMS7003;30602;51.060;17.226;2023-06-14T11:03:36;10;10;8
44871;PMS7003;30602;51.060;17.226;2023-06-14T11:07:10;10;9;7
44871;PMS7003;30602;51.060;17.226;2023-06-14T11:10:49;12;10;9
44871;PMS7003;30602;51.060;17.226;2023-06-14T11:14:31;10;10;7
44871;PMS7003;30602;51.060;17.226;2023-06-14T11:18:34;10;8;7
44871;PMS7003;30602;51.060;17.226;2023-06-14T11:22:51;11;9;8
44871;PMS7003;30602;51.060;17.226;2023-06-14T11:26:13;14;12;11
44871;PMS7003;30602;51.060;17.226;2023-06-14T11:29:33;10;9;9
44871;PMS7003;30602;51.060;17.226;2023-06-14T11:33:24;8;8;7
44871;PMS7003;30602;51.060;17.226;2023-06-14T11:36:44;10;9;7
44871;PMS7003;30602;51.060;17.226;2023-06-14T11:40:08;9;9;7
44871;PMS7003;30602;51.060;17.226;2023-06-14T11:43:55;11;11;9
44871;PMS7003;30602;51.060;17.226;2023-06-14T11:48:02;11;9;8
44871;PMS7003;30602;51.060;17.226;2023-06-14T11:51:55;9;8;6
44871;PMS7003;30602;51.060;17.226;2023-06-14T11:55:43;10;9;8
44871;PMS7003;30602;51.060;17.226;2023-06-14T11:59:40;9;8;6
44871;PMS7003;30602;51.060;17.226;2023-06-14T12:03:03;10;10;7
44871;PMS7003;30602;51.060;17.226;2023-06-14T12:06:42;10;8;7
44871;PMS7003;30602;51.060;17.226;2023-06-14T12:10:28;10;9;8
44871;PMS7003;30602;51.060;17.226;2023-06-14T12:14:07;11;11;9
44871;PMS7003;30602;51.060;17.226;2023-06-14T12:17:41;9;9;8
44871;PMS7003;30602;51.060;17.226;2023-06-14T12:21:37;9;9;8
44871;PMS7003;30602;51.060;17.226;2023-06-14T12:25:55;11;9;8
44871;PMS7003;30602;51.060;17.226;2023-06-14T12:29:42;11;11;9
44871;PMS7003;30602;51.060;17.226;2023-06-14T12:33:34;10;10;8
44871;PMS7003;30602;51.060;17.226;2023-06-14T12:37:50;9;9;7
44871;PMS7003;30602;51.060;17.226;2023-06-14T12:41:49;12;11;9
44871;PMS7003;30602;51.060;17.226;2023-06-14T12:45:11;12;10;9
44871;PMS7003;30602;51.060;17.226;2023-06-14T12:49:24;10;9;7
44871;PMS7003;30602;51.060;17.226;2023-06-14T12:53:10;11;10;10
44871;PMS7003;30602;51.060;17.226;2023-06-14T12:56:57;12;10;8
44871;PMS7003;30602;51.060;17.226;2023-06-14T13:00:47;10;9;7
44871;PMS7003;30602;51.060;17.226;2023-06-14T13:04:41;10;9;8
44871;PMS7003;30602;51.060;17.226;2023-06-14T13:08:19;12;10;8
44871;PMS7003;30602;51.060;17.226;2023-06-14T13:11:44;13;11;10
44871;PMS7003;30602;51.060;17.226;2023-06-14T13:15:43;14;13;11
44871;PMS7003;30602;51.060;17.226;2023-06-14T13:19:14;11;11;10
44871;PMS7003;30602;51.060;17.226;2023-06-14T13:22:37;12;12;10
44871;PMS7003;30602;51.060;17.226;2023-06-14T13:25:57;11;10;9
44871;PMS7003;30602;51.060;17.226;2023-06-14T13:29:20;11;10;9
44871;PMS7003;30602;51.060;17.226;2023-06-14T13:32:42;12;11;9
44871;PMS7003;30602;51.060;17.226;2023-06-14T13:36:44;13;11;10
44871;PMS7003;30602;51.060;17.226;2023-06-14T13:40:22;15;12;10
44871;PMS7003;30602;51.060;17.226;2023-06-14T13:43:59;10;10;8
44871;PMS7003;30602;51.060;17.226;2023-06-14T13:48:10;10;10;9
44871;PMS7003;30602;51.060;17.226;2023-06-14T13:53:07;11;10;9
44871;PMS7003;30602;51.060;17.226;2023-06-14T13:57:07;10;10;8
44871;PMS7003;30602;51.060;17.226;2023-06-14T14:00:45;13;10;9
44871;PMS7003;30602;51.060;17.226;2023-06-14T14:04:26;8;8;6
44871;PMS7003;30602;51.060;17.226;2023-06-14T14:08:20;9;8;7
44871;PMS7003;30602;51.060;17.226;2023-06-14T14:12:13;13;12;10
44871;PMS7003;30602;51.060;17.226;2023-06-14T14:15:45;14;14;12
44871;PMS7003;30602;51.060;17.226;2023-06-14T14:19:10;16;15;11
44871;PMS7003;30602;51.060;17.226;2023-06-14T14:23:03;14;14;11
44871;PMS7003;30602;51.060;17.226;2023-06-14T14:26:29;14;14;11
44871;PMS7003;30602;51.060;17.226;2023-06-14T14:29:50;22;20;15
44871;PMS7003;30602;51.060;17.226;2023-06-14T14:33:36;18;17;13
44871;PMS7003;30602;51.060;17.226;2023-06-14T14:37:01;19;17;15
44871;PMS7003;30602;51.060;17.226;2023-06-14T14:40:23;23;18;15
44871;PMS7003;30602;51.060;17.226;2023-06-14T14:43:52;23;17;14
44871;PMS7003;30602;51.060;17.226;2023-06-14T14:47:13;19;17;14
44871;PMS7003;30602;51.060;17.226;2023-06-14T14:50:36;20;19;14
44871;PMS7003;30602;51.060;17.226;2023-06-14T14:54:15;20;15;12
44871;PMS7003;30602;51.060;17.226;2023-06-14T14:57:41;20;20;15
44871;PMS7003;30602;51.060;17.226;2023-06-14T15:01:32;25;22;15
44871;PMS7003;30602;51.060;17.226;2023-06-14T15:08:51;24;20;15
44871;PMS7003;30602;51.060;17.226;2023-06-14T15:12:34;21;20;15
44871;PMS7003;30602;51.060;17.226;2023-06-14T15:16:26;24;20;16
44871;PMS7003;30602;51.060;17.226;2023-06-14T15:20:46;22;21;17
44871;PMS7003;30602;51.060;17.226;2023-06-14T15:24:08;25;23;17
44871;PMS7003;30602;51.060;17.226;2023-06-14T15:31:36;23;22;17
44871;PMS7003;30602;51.060;17.226;2023-06-14T15:35:25;24;21;16
44871;PMS7003;30602;51.060;17.226;2023-06-14T15:39:15;29;25;19
44871;PMS7003;30602;51.060;17.226;2023-06-14T15:42:39;24;22;18
44871;PMS7003;30602;51.060;17.226;2023-06-14T15:46:33;28;25;18
44871;PMS7003;30602;51.060;17.226;2023-06-14T15:50:38;29;24;19
44871;PMS7003;30602;51.060;17.226;2023-06-14T15:54:27;24;22;17
44871;PMS7003;30602;51.060;17.226;2023-06-14T15:58:08;24;24;18
44871;PMS7003;30602;51.060;17.226;2023-06-14T16:01:34;23;21;17
44871;PMS7003;30602;51.060;17.226;2023-06-14T16:09:22;25;24;18
44871;PMS7003;30602;51.060;17.226;2023-06-14T16:13:05;21;21;17
44871;PMS7003;30602;51.060;17.226;2023-06-14T16:17:23;26;22;17
44871;PMS7003;30602;51.060;17.226;2023-06-14T16:21:18;19;19;16
44871;PMS7003;30602;51.060;17.226;2023-06-14T16:25:13;22;20;15
44871;PMS7003;30602;51.060;17.226;2023-06-14T16:29:07;22;20;15
44871;PMS7003;30602;51.060;17.226;2023-06-14T16:36:45;25;20;16
44871;PMS7003;30602;51.060;17.226;2023-06-14T16:40:27;13;13;10
44871;PMS7003;30602;51.060;17.226;2023-06-14T16:44:09;17;16;13
44871;PMS7003;30602;51.060;17.226;2023-06-14T16:48:49;23;17;12
44871;PMS7003;30602;51.060;17.226;2023-06-14T16:52:46;16;16;13
44871;PMS7003;30602;51.060;17.226;2023-06-14T16:56:42;19;17;13
44871;PMS7003;30602;51.060;17.226;2023-06-14T17:00:18;17;16;13
44871;PMS7003;30602;51.060;17.226;2023-06-14T17:03:39;19;15;10
44871;PMS7003;30602;51.060;17.226;2023-06-14T17:07:38;15;14;12
44871;PMS7003;30602;51.060;17.226;2023-06-14T17:11:18;12;12;10
44871;PMS7003;30602;51.060;17.226;2023-06-14T17:15:52;14;13;11
44871;PMS7003;30602;51.060;17.226;2023-06-14T17:20:52;15;12;10
44871;PMS7003;30602;51.060;17.226;2023-06-14T17:24:27;15;12;10
44871;PMS7003;30602;51.060;17.226;2023-06-14T17:28:07;12;12;9
44871;PMS7003;30602;51.060;17.226;2023-06-14T17:35:39;13;12;9
44871;PMS7003;30602;51.060;17.226;2023-06-14T17:40:04;14;13;10
44871;PMS7003;30602;51.060;17.226;2023-06-14T17:43:46;13;12;9
44871;PMS7003;30602;51.060;17.226;2023-06-14T17:48:15;18;14;11
44871;PMS7003;30602;51.060;17.226;2023-06-14T17:52:09;14;13;10
44871;PMS7003;30602;51.060;17.226;2023-06-14T17:55:34;14;12;10
44871;PMS7003;30602;51.060;17.226;2023-06-14T17:59:16;17;15;12
44871;PMS7003;30602;51.060;17.226;2023-06-14T18:03:05;14;13;11
44871;PMS7003;30602;51.060;17.226;2023-06-14T18:06:27;17;15;12
44871;PMS7003;30602;51.060;17.226;2023-06-14T18:10:39;14;13;10
44871;PMS7003;30602;51.060;17.226;2023-06-14T18:18:47;23;20;16
44871;PMS7003;30602;51.060;17.226;2023-06-14T18:22:22;29;26;17
44871;PMS7003;30602;51.060;17.226;2023-06-14T18:26:56;66;49;27
44871;PMS7003;30602;51.060;17.226;2023-06-14T18:31:20;31;29;19
44871;PMS7003;30602;51.060;17.226;2023-06-14T18:36:03;24;22;16
44871;PMS7003;30602;51.060;17.226;2023-06-14T18:39:26;23;15;13
44871;PMS7003;30602;51.060;17.226;2023-06-14T18:44:06;15;15;13
44871;PMS7003;30602;51.060;17.226;2023-06-14T18:47:38;22;20;14
44871;PMS7003;30602;51.060;17.226;2023-06-14T18:51:54;25;22;15
44871;PMS7003;30602;51.060;17.226;2023-06-14T18:55:38;19;17;15
44871;PMS7003;30602;51.060;17.226;2023-06-14T18:59:05;22;20;16
44871;PMS7003;30602;51.060;17.226;2023-06-14T19:02:53;23;20;15
44871;PMS7003;30602;51.060;17.226;2023-06-14T19:07:18;16;16;12
44871;PMS7003;30602;51.060;17.226;2023-06-14T19:11:12;20;19;14
44871;PMS7003;30602;51.060;17.226;2023-06-14T19:14:47;17;15;13
44871;PMS7003;30602;51.060;17.226;2023-06-14T19:18:52;17;16;12
44871;PMS7003;30602;51.060;17.226;2023-06-14T19:22:54;19;18;14
44871;PMS7003;30602;51.060;17.226;2023-06-14T19:26:30;19;19;15
44871;PMS7003;30602;51.060;17.226;2023-06-14T19:30:25;19;19;16
44871;PMS7003;30602;51.060;17.226;2023-06-14T19:34:11;29;27;19
44871;PMS7003;30602;51.060;17.226;2023-06-14T19:38:37;67;51;33
44871;PMS7003;30602;51.060;17.226;2023-06-14T19:42:28;126;103;56
44871;PMS7003;30602;51.060;17.226;2023-06-14T19:45:49;113;94;54
44871;PMS7003;30602;51.060;17.226;2023-06-14T19:49:20;86;70;40
44871;PMS7003;30602;51.060;17.226;2023-06-14T19:53:06;78;58;37
44871;PMS7003;30602;51.060;17.226;2023-06-14T20:01:14;65;49;31
44871;PMS7003;30602;51.060;17.226;2023-06-14T20:05:27;66;49;32
44871;PMS7003;30602;51.060;17.226;2023-06-14T20:09:18;68;50;32
44871;PMS7003;30602;51.060;17.226;2023-06-14T20:17:37;43;35;24
44871;PMS7003;30602;51.060;17.226;2023-06-14T20:20:58;40;34;25
44871;PMS7003;30602;51.060;17.226;2023-06-14T20:24:26;45;36;23
44871;PMS7003;30602;51.060;17.226;2023-06-14T20:27:50;38;34;22
44871;PMS7003;30602;51.060;17.226;2023-06-14T20:31:18;40;35;24
44871;PMS7003;30602;51.060;17.226;2023-06-14T20:35:45;35;33;22
44871;PMS7003;30602;51.060;17.226;2023-06-14T20:39:09;25;22;16
44871;PMS7003;30602;51.060;17.226;2023-06-14T20:43:06;26;23;18
44871;PMS7003;30602;51.060;17.226;2023-06-14T20:47:23;31;27;21
44871;PMS7003;30602;51.060;17.226;2023-06-14T20:51:09;33;28;19
44871;PMS7003;30602;51.060;17.226;2023-06-14T20:54:37;27;26;19
44871;PMS7003;30602;51.060;17.226;2023-06-14T20:58:51;28;24;18
44871;PMS7003;30602;51.060;17.226;2023-06-14T21:02:17;28;26;20
44871;PMS7003;30602;51.060;17.226;2023-06-14T21:06:02;28;25;19
44871;PMS7003;30602;51.060;17.226;2023-06-14T21:09:54;35;28;20
44871;PMS7003;30602;51.060;17.226;2023-06-14T21:13:16;27;26;21
44871;PMS7003;30602;51.060;17.226;2023-06-14T21:17:12;30;29;20
44871;PMS7003;30602;51.060;17.226;2023-06-14T21:21:00;28;26;21
44871;PMS7003;30602;51.060;17.226;2023-06-14T21:24:29;27;27;20
44871;PMS7003;30602;51.060;17.226;2023-06-14T21:28:44;32;24;19
44871;PMS7003;30602;51.060;17.226;2023-06-14T21:32:45;27;23;19
44871;PMS7003;30602;51.060;17.226;2023-06-14T21:36:27;27;21;15
44871;PMS7003;30602;51.060;17.226;2023-06-14T21:40:05;28;26;19
44871;PMS7003;30602;51.060;17.226;2023-06-14T21:43:48;25;24;18
44871;PMS7003;30602;51.060;17.226;2023-06-14T21:47:55;27;24;19
44871;PMS7003;30602;51.060;17.226;2023-06-14T21:51:51;26;24;19
44871;PMS7003;30602;51.060;17.226;2023-06-14T21:55:44;29;26;19
44871;PMS7003;30602;51.060;17.226;2023-06-14T21:59:53;25;22;18
44871;PMS7003;30602;51.060;17.226;2023-06-14T22:04:03;31;25;18
44871;PMS7003;30602;51.060;17.226;2023-06-14T22:08:02;28;25;20
44871;PMS7003;30602;51.060;17.226;2023-06-14T22:11:52;28;25;19
44871;PMS7003;30602;51.060;17.226;2023-06-14T22:15:34;27;25;18
44871;PMS7003;30602;51.060;17.226;2023-06-14T22:18:58;29;26;21
44871;PMS7003;30602;51.060;17.226;2023-06-14T22:22:20;34;29;21
44871;PMS7003;30602;51.060;17.226;2023-06-14T22:26:41;27;25;20
44871;PMS7003;30602;51.060;17.226;2023-06-14T22:31:07;23;23;17
44871;PMS7003;30602;51.060;17.226;2023-06-14T22:35:58;28;23;19
44871;PMS7003;30602;51.060;17.226;2023-06-14T22:39:36;26;25;19
44871;PMS7003;30602;51.060;17.226;2023-06-14T22:43:20;26;23;19
44871;PMS7003;30602;51.060;17.226;2023-06-14T22:47:47;30;26;20
44871;PMS7003;30602;51.060;17.226;2023-06-14T22:52:05;27;26;20
44871;PMS7003;30602;51.060;17.226;2023-06-14T22:56:50;28;24;19
44871;PMS7003;30602;51.060;17.226;2023-06-14T23:01:41;31;27;20
44871;PMS7003;30602;51.060;17.226;2023-06-14T23:05:58;28;27;21
44871;PMS7003;30602;51.060;17.226;2023-06-14T23:09:45;23;21;16
44871;PMS7003;30602;51.060;17.226;2023-06-14T23:14:16;26;23;18
44871;PMS7003;30602;51.060;17.226;2023-06-14T23:17:58;25;24;17
44871;PMS7003;30602;51.060;17.226;2023-06-14T23:21:16;27;24;17
44871;PMS7003;30602;51.060;17.226;2023-06-14T23:25:26;23;20;16
44871;PMS7003;30602;51.060;17.226;2023-06-14T23:29:29;24;23;17
44871;PMS7003;30602;51.060;17.226;2023-06-14T23:33:40;23;21;18
44871;PMS7003;30602;51.060;17.226;2023-06-14T23:37:05;21;20;16
44871;PMS7003;30602;51.060;17.226;2023-06-14T23:41:29;23;23;17
44871;PMS7003;30602;51.060;17.226;2023-06-14T23:45:53;25;20;14
44871;PMS7003;30602;51.060;17.226;2023-06-14T23:49:53;26;23;18
44871;PMS7003;30602;51.060;17.226;2023-06-14T23:53:42;29;27;21
44871;PMS7003;30602;51.060;17.226;2023-06-14T23:58:04;27;26;21
